METAR Data
IDs: Format: Raw Decoded Include TAF

Data at: 0229 UTC 23 Apr 2021

YBRM 230200Z 11013KT CAVOK 32/06 Q1013
YBRM 230130Z 10012KT CAVOK 30/07 Q1013
YBRM 230100Z 12009KT CAVOK 28/08 Q1013
YBRM 230030Z 11007KT CAVOK 27/07 Q1013
YBRM 230000Z 10006KT CAVOK 25/07 Q1013
YBRM 222330Z 12005KT CAVOK 23/07 Q1013
YBRM 222300Z 11004KT CAVOK 21/07 Q1013
YBRM 222230Z AUTO 11005KT 9999 // NCD 20/08 Q1012 RF00.0/000.0
YBRM 222200Z AUTO 11006KT 9999 // NCD 19/09 Q1012
YBRM 222130Z AUTO 11005KT 9999 // NCD 19/10 Q1012 RF00.0/000.0
YBRM 222100Z AUTO 13006KT 9999 // NCD 21/12 Q1011
YBRM 222030Z AUTO 13007KT 9999 // NCD 21/08 Q1011 RF00.0/000.0
YBRM 222000Z AUTO 11006KT 9999 // NCD 19/09 Q1011
YBRM 221930Z AUTO 06005KT 9999 // NCD 18/11 Q1011 RF00.0/000.0
YBRM 221900Z AUTO 12005KT 9999 // NCD 22/11 Q1011
YBRM 221830Z AUTO 13006KT 9999 // NCD 24/12 Q1011 RF00.0/000.0
YBRM 221800Z AUTO 16008KT 9999 // NCD 26/10 Q1011
YBRM 221730Z AUTO 16008KT 9999 // NCD 26/08 Q1011 RF00.0/000.0
YBRM 221700Z AUTO 18005KT 9999 // NCD 25/14 Q1011
YBRM 221630Z AUTO 00000KT 9999 // NCD 25/13 Q1012 RF00.0/000.0
YBRM 221600Z AUTO 00000KT 9999 // NCD 22/16 Q1012
YBRM 221530Z AUTO 13001KT 9999 // NCD 22/16 Q1012 RF00.0/000.0
YBRM 221500Z AUTO 15004KT 9999 // SCT110 26/17 Q1012
YBRM 221430Z AUTO 14005KT 9999 // BKN110 26/16 Q1013 RF00.0/000.0
YBRM 221400Z AUTO 15005KT 9999 // SCT110 27/16 Q1013
YBRM 221330Z AUTO 14007KT 9999 // NCD 28/15 Q1013 RF00.0/000.0
YBRM 221300Z AUTO 14007KT 9999 // NCD 28/17 Q1013
YBRM 221230Z AUTO 14007KT 9999 // NCD 28/16 Q1013 RF00.0/000.0
YBRM 221200Z AUTO 13007KT 9999 // NCD 28/17 Q1012
YBRM 221130Z AUTO 14004KT 9999 // NCD 28/16 Q1012 RF00.0/000.0
YBRM 221100Z AUTO 14004KT 9999 // SCT105 28/19 Q1012
YBRM 221030Z AUTO 14005KT 9999 // SCT105 29/15 Q1012 RF00.0/000.0
YBRM 221000Z AUTO 14006KT 9999 // BKN105 30/13 Q1011
YBRM 220930Z AUTO 13006KT 9999 // SCT105 31/13 Q1011 RF00.0/000.0
YBRM 220900Z AUTO 15006KT 9999 // SCT105 31/13 Q1011
YBRM 220830Z AUTO 15006KT 9999 // NCD 32/13 Q1010 RF00.0/000.0
YBRM 220800Z AUTO 15007KT 9999 // NCD 32/12 Q1010
YBRM 220730Z 15008KT CAVOK 33/09 Q1010
YBRM 220700Z 13008KT CAVOK 33/12 Q1010
YBRM 220630Z 13009KT CAVOK 33/07 Q1010
YBRM 220600Z 13009KT CAVOK 33/09 Q1011
YBRM 220530Z 13011KT CAVOK 33/08 Q1011
YBRM 220500Z 12013KT CAVOK 33/05 Q1011
YBRM 220430Z 12014KT CAVOK 33/04 Q1012
YBRM 220400Z 12014KT CAVOK 32/06 Q1012
YBRM 220330Z 12014KT CAVOK 32/04 Q1013
YBRM 220300Z 13014KT CAVOK 31/03 Q1013
YBRM 220230Z 11013KT CAVOK 31/05 Q1013
YBRM 220200Z 11015KT CAVOK 30/03 Q1014
YBRM 220150Z 12015KT CAVOK 30/05 Q1014
YBRM 220130Z 13009KT CAVOK 27/08 Q1014
YBRM 220100Z 13010KT CAVOK 26/07 Q1014
YBRM 220030Z 12007KT CAVOK 25/07 Q1014
YBRM 220000Z 11008KT CAVOK 24/05 Q1014
YBRM 212330Z 11008KT CAVOK 22/05 Q1014
YBRM 212300Z 10008KT CAVOK 21/06 Q1014
YBRM 212230Z AUTO 05006KT 9999 // NCD 19/07 Q1014 RF00.0/000.0
YBRM 212200Z AUTO 11010KT 9999 // NCD 23/09 Q1013
YBRM 212130Z AUTO 12008KT 9999 // NCD 23/09 Q1013 RF00.0/000.0
YBRM 212100Z AUTO 13012KT 9999 // NCD 24/07 Q1012
YBRM 212030Z AUTO 13007KT 9999 // NCD 22/10 Q1012 RF00.0/000.0
YBRM 212000Z AUTO 12006KT 9999 // NCD 20/08 Q1012
YBRM 211930Z AUTO 12004KT 9999 // NCD 20/08 Q1012 RF00.0/000.0
YBRM 211900Z AUTO 06004KT 9999 // NCD 20/08 Q1012
YBRM 211830Z AUTO 13008KT 9999 // NCD 25/09 Q1012 RF00.0/000.0
YBRM 211800Z AUTO 13012KT 9999 // NCD 25/09 Q1012
YBRM 211730Z AUTO 13011KT 9999 // NCD 26/10 Q1012 RF00.0/000.0
YBRM 211700Z AUTO 13009KT 9999 // NCD 26/11 Q1012
YBRM 211630Z AUTO 13008KT 9999 // NCD 26/11 Q1013 RF00.0/000.0
YBRM 211600Z AUTO 13007KT 9999 // NCD 26/13 Q1013
YBRM 211530Z AUTO 17006KT 9999 // NCD 27/14 Q1013 RF00.0/000.0
YBRM 211500Z AUTO 17006KT 9999 // NCD 26/16 Q1013
YBRM 211430Z AUTO 18005KT 9999 // NCD 27/14 Q1013 RF00.0/000.0